createdAt,value
2022-11-23T00:02:02.135Z,0.16
2022-11-23T00:04:30.578Z,0.12
2022-11-23T00:06:58.865Z,0.10
2022-11-23T00:09:27.297Z,0.10
2022-11-23T00:11:56.954Z,0.08
2022-11-23T00:14:25.321Z,0.05
2022-11-23T00:16:53.635Z,0.07
2022-11-23T00:19:21.998Z,0.07
2022-11-23T00:21:50.351Z,0.06
2022-11-23T00:24:18.669Z,0.06
2022-11-23T00:26:47.013Z,0.08
2022-11-23T00:29:16.662Z,0.09
2022-11-23T00:31:44.993Z,0.09
2022-11-23T00:34:13.329Z,0.10
2022-11-23T00:36:41.649Z,0.10
2022-11-23T00:39:09.991Z,0.10
2022-11-23T00:41:38.302Z,0.10
2022-11-23T00:44:06.607Z,0.08
2022-11-23T00:46:36.439Z,0.07
2022-11-23T00:49:06.685Z,0.07
2022-11-23T00:51:37.120Z,0.05
2022-11-23T00:54:07.211Z,0.05
2022-11-23T00:56:36.827Z,0.02
2022-11-23T00:59:05.825Z,0.02
2022-11-23T01:01:37.104Z,0.01
2022-11-23T01:04:09.135Z,0.02
2022-11-23T01:06:39.599Z,0.01
2022-11-23T01:09:10.310Z,0.01
2022-11-23T01:11:38.822Z,0.00
2022-11-23T01:14:07.584Z,0.01
2022-11-23T01:16:40.035Z,-0.01
2022-11-23T01:19:10.193Z,-0.01
2022-11-23T01:21:38.932Z,-0.02
2022-11-23T01:24:08.525Z,-0.06
2022-11-23T01:26:36.852Z,-0.05
2022-11-23T01:29:05.261Z,-0.05
2022-11-23T01:31:33.593Z,-0.06
2022-11-23T01:34:04.628Z,-0.06
2022-11-23T01:36:34.620Z,-0.04
2022-11-23T01:39:05.384Z,-0.04
2022-11-23T01:41:35.575Z,-0.03
2022-11-23T01:44:24.153Z,0.01
2022-11-23T01:46:52.560Z,0.05
2022-11-23T01:49:23.973Z,0.07
2022-11-23T01:51:56.277Z,0.10
2022-11-23T01:54:29.558Z,0.11
2022-11-23T01:57:02.741Z,0.13
2022-11-23T01:59:34.780Z,0.17
2022-11-23T02:02:04.358Z,0.21
2022-11-23T02:04:38.669Z,0.22
2022-11-23T02:07:08.149Z,0.25
2022-11-23T02:09:37.334Z,0.29
2022-11-23T02:12:11.660Z,0.30
2022-11-23T02:14:40.142Z,0.32
2022-11-23T02:17:08.716Z,0.31
2022-11-23T02:19:48.447Z,0.32
2022-11-23T02:22:25.462Z,0.35
2022-11-23T02:24:56.166Z,0.33
2022-11-23T02:27:27.337Z,0.37
2022-11-23T02:29:58.262Z,0.38
2022-11-23T02:32:26.994Z,0.38
2022-11-23T02:34:55.419Z,0.42
2022-11-23T02:37:24.244Z,0.43
2022-11-23T02:39:54.764Z,0.44
2022-11-23T02:42:26.550Z,0.45
2022-11-23T02:45:00.269Z,0.46
2022-11-23T02:47:28.720Z,0.45
2022-11-23T02:49:57.069Z,0.46
2022-11-23T02:52:25.753Z,0.46
2022-11-23T02:54:54.109Z,0.45
2022-11-23T02:57:22.448Z,0.49
2022-11-23T02:59:52.338Z,0.49
2022-11-23T03:02:20.670Z,0.49
2022-11-23T03:04:49.217Z,0.49
2022-11-23T03:07:17.736Z,0.47
2022-11-23T03:09:46.073Z,0.45
2022-11-23T03:12:14.478Z,0.43
2022-11-23T03:14:42.813Z,0.41
2022-11-23T03:17:12.521Z,0.39
2022-11-23T03:19:40.861Z,0.39
2022-11-23T03:22:09.648Z,0.37
2022-11-23T03:24:38.059Z,0.35
2022-11-23T03:27:06.724Z,0.32
2022-11-23T03:29:35.108Z,0.30
2022-11-23T03:32:03.533Z,0.28
2022-11-23T03:34:33.310Z,0.25
2022-11-23T03:37:01.641Z,0.24
2022-11-23T03:39:30.223Z,0.20
2022-11-23T03:41:58.869Z,0.19
2022-11-23T03:44:27.200Z,0.16
2022-11-23T03:46:55.575Z,0.13
2022-11-23T03:49:23.897Z,0.12
2022-11-23T03:51:53.605Z,0.11
2022-11-23T03:54:21.956Z,0.10
2022-11-23T03:56:50.286Z,0.11
2022-11-23T03:59:18.607Z,0.10
2022-11-23T04:01:46.914Z,0.09
2022-11-23T04:04:15.476Z,0.09
2022-11-23T04:06:43.787Z,0.07
2022-11-23T04:09:14.353Z,0.06
2022-11-23T04:11:42.774Z,0.04
2022-11-23T04:14:11.091Z,0.01
2022-11-23T04:16:39.417Z,0.02
2022-11-23T04:19:07.802Z,-0.01
2022-11-23T04:21:36.141Z,-0.03
2022-11-23T04:24:04.876Z,-0.03
2022-11-23T04:26:34.625Z,-0.03
2022-11-23T04:29:03.085Z,-0.03
2022-11-23T04:31:31.377Z,-0.02
2022-11-23T04:33:59.869Z,-0.03
2022-11-23T04:36:28.409Z,-0.01
2022-11-23T04:38:56.862Z,-0.02
2022-11-23T04:41:25.555Z,-0.04
2022-11-23T04:43:55.254Z,-0.06
2022-11-23T04:46:23.550Z,-0.07
2022-11-23T04:48:51.887Z,-0.08
2022-11-23T04:51:20.233Z,-0.08
2022-11-23T04:53:48.806Z,-0.08
2022-11-23T04:56:17.187Z,-0.08
2022-11-23T04:58:45.819Z,-0.08
2022-11-23T05:01:15.599Z,-0.10
2022-11-23T05:03:44.166Z,-0.10
2022-11-23T05:06:12.493Z,-0.11
2022-11-23T05:08:40.930Z,-0.13
2022-11-23T05:11:09.722Z,-0.14
2022-11-23T05:13:38.116Z,-0.15
2022-11-23T05:16:06.690Z,-0.14
2022-11-23T05:18:36.364Z,-0.11
2022-11-23T05:21:04.816Z,-0.11
2022-11-23T05:23:33.156Z,-0.11
2022-11-23T05:26:01.497Z,-0.09
2022-11-23T05:28:40.054Z,-0.07
2022-11-23T05:31:09.172Z,-0.05
2022-11-23T05:33:38.963Z,-0.04
2022-11-23T05:36:08.044Z,-0.03
2022-11-23T05:38:36.661Z,-0.02
2022-11-23T05:41:05.021Z,-0.02
2022-11-23T05:43:33.453Z,0.01
2022-11-23T05:46:02.097Z,0.03
2022-11-23T05:48:30.496Z,0.06
2022-11-23T05:51:05.126Z,0.09
2022-11-23T05:53:34.185Z,0.11
2022-11-23T05:56:03.328Z,0.13
2022-11-23T05:58:31.661Z,0.13
2022-11-23T06:01:00.508Z,0.12
2022-11-23T06:03:29.489Z,0.15
2022-11-23T06:05:57.778Z,0.16
2022-11-23T06:08:27.513Z,0.18
2022-11-23T06:10:55.836Z,0.18
2022-11-23T06:13:24.221Z,0.21
2022-11-23T06:15:52.570Z,0.20
2022-11-23T06:18:20.905Z,0.20
2022-11-23T06:20:49.300Z,0.18
2022-11-23T06:23:17.639Z,0.17
2022-11-23T06:25:47.308Z,0.14
2022-11-23T06:28:15.636Z,0.12
2022-11-23T06:30:44.051Z,0.12
2022-11-23T06:33:12.429Z,0.10
2022-11-23T06:35:40.753Z,0.09
2022-11-23T06:38:09.140Z,0.07
2022-11-23T06:40:37.496Z,0.06
2022-11-23T06:43:08.153Z,0.04
2022-11-23T06:45:36.590Z,0.03
2022-11-23T06:48:05.502Z,-0.01
2022-11-23T06:50:34.003Z,-0.03
2022-11-23T06:53:02.363Z,-0.05
2022-11-23T06:55:30.666Z,-0.06
2022-11-23T06:57:59.424Z,-0.07
2022-11-23T07:00:29.226Z,-0.07
2022-11-23T07:02:57.979Z,-0.08
2022-11-23T07:05:26.410Z,-0.10
2022-11-23T07:07:55.043Z,-0.10
2022-11-23T07:10:23.589Z,-0.11
2022-11-23T07:12:51.991Z,-0.11
2022-11-23T07:15:20.486Z,-0.12
2022-11-23T07:17:50.204Z,-0.13
2022-11-23T07:20:18.693Z,-0.14
2022-11-23T07:22:47.083Z,-0.14
2022-11-23T07:25:19.051Z,-0.14
2022-11-23T07:27:47.370Z,-0.14
2022-11-23T07:30:16.665Z,-0.14
2022-11-23T07:32:45.010Z,-0.14
2022-11-23T07:35:14.828Z,-0.14
2022-11-23T07:37:43.200Z,-0.10
2022-11-23T07:40:11.996Z,-0.09
2022-11-23T07:42:44.895Z,-0.09
2022-11-23T07:45:14.008Z,-0.08
2022-11-23T07:47:42.472Z,-0.04
2022-11-23T07:50:12.508Z,-0.04
2022-11-23T07:52:42.216Z,-0.01
2022-11-23T07:55:11.050Z,0.00
2022-11-23T07:57:39.650Z,0.04
2022-11-23T08:00:09.653Z,0.06
2022-11-23T08:02:38.516Z,0.11
2022-11-23T08:05:13.899Z,0.15
2022-11-23T08:07:45.011Z,0.17
2022-11-23T08:10:14.237Z,0.20
2022-11-23T08:12:42.674Z,0.21
2022-11-23T08:15:11.834Z,0.24
2022-11-23T08:17:40.200Z,0.25
2022-11-23T08:20:09.145Z,0.30
2022-11-23T08:22:37.482Z,0.32
2022-11-23T08:25:08.328Z,0.35
2022-11-23T08:27:36.757Z,0.42
2022-11-23T08:30:06.048Z,0.44
2022-11-23T08:32:34.524Z,0.48
2022-11-23T08:35:03.044Z,0.53
2022-11-23T08:37:31.377Z,0.59
2022-11-23T08:40:02.621Z,0.63
2022-11-23T08:42:32.394Z,0.69
2022-11-23T08:45:03.128Z,0.72
2022-11-23T08:47:32.462Z,0.76
2022-11-23T08:50:01.172Z,0.80
2022-11-23T08:52:29.577Z,0.85
2022-11-23T08:54:57.889Z,0.88
2022-11-23T08:57:26.520Z,0.92
2022-11-23T08:59:56.500Z,0.99
2022-11-23T09:02:25.052Z,1.03
2022-11-23T09:04:53.522Z,1.00
2022-11-23T09:07:21.912Z,1.12
2022-11-23T09:09:50.262Z,1.19
2022-11-23T09:12:18.635Z,1.24
2022-11-23T09:14:46.939Z,1.27
2022-11-23T09:17:16.651Z,1.36
2022-11-23T09:19:44.966Z,1.39
2022-11-23T09:22:13.368Z,1.44
2022-11-23T09:24:41.792Z,1.50
2022-11-23T09:27:10.212Z,1.55
2022-11-23T09:29:38.586Z,1.61
2022-11-23T09:32:06.984Z,1.67
2022-11-23T09:34:37.265Z,1.72
2022-11-23T09:37:05.664Z,1.79
2022-11-23T09:39:34.010Z,1.89
2022-11-23T09:42:16.995Z,1.95
2022-11-23T09:44:59.817Z,2.07
2022-11-23T09:47:47.233Z,2.14
2022-11-23T09:50:25.644Z,2.22
2022-11-23T09:52:55.229Z,2.30
2022-11-23T09:55:33.389Z,2.35
2022-11-23T09:58:05.224Z,2.47
2022-11-23T10:00:39.771Z,2.62
2022-11-23T10:03:15.865Z,2.91
2022-11-23T10:05:54.869Z,3.17
2022-11-23T10:08:37.318Z,3.66
2022-11-23T10:11:22.505Z,4.01
2022-11-23T10:14:01.073Z,4.09
2022-11-23T10:16:45.208Z,4.21
2022-11-23T10:19:23.758Z,4.51
2022-11-23T10:21:59.965Z,4.60
2022-11-23T10:24:34.800Z,4.68
2022-11-23T10:27:07.202Z,4.64
2022-11-23T10:29:38.271Z,4.65
2022-11-23T10:32:13.022Z,4.65
2022-11-23T10:34:50.051Z,4.75
2022-11-23T10:37:20.043Z,4.88
2022-11-23T10:39:48.377Z,5.02
2022-11-23T10:42:23.165Z,5.09
2022-11-23T10:44:52.921Z,5.06
2022-11-23T10:47:39.878Z,5.26
2022-11-23T10:50:26.330Z,5.62
2022-11-23T10:52:58.917Z,5.70
2022-11-23T10:55:30.312Z,5.77
2022-11-23T10:57:59.705Z,5.77
2022-11-23T11:00:31.295Z,5.77
2022-11-23T11:03:02.330Z,5.73
2022-11-23T11:06:07.441Z,5.87
2022-11-23T11:08:28.826Z,5.94
2022-11-23T11:11:03.176Z,5.99
2022-11-23T11:13:32.221Z,6.11
2022-11-23T11:16:03.129Z,6.33
2022-11-23T11:18:34.261Z,6.55
2022-11-23T11:21:06.560Z,6.70
2022-11-23T11:23:41.566Z,6.86
2022-11-23T11:26:20.012Z,6.95
2022-11-23T11:28:51.354Z,6.83
2022-11-23T11:31:43.238Z,6.90
2022-11-23T11:34:21.337Z,6.74
2022-11-23T11:36:55.408Z,6.47
2022-11-23T11:39:29.862Z,6.38
2022-11-23T11:42:01.463Z,6.18
2022-11-23T11:44:33.870Z,6.08
2022-11-23T11:47:11.749Z,6.16
2022-11-23T11:49:45.364Z,6.47
2022-11-23T11:52:19.309Z,6.36
2022-11-23T11:54:54.713Z,6.22
2022-11-23T11:57:25.858Z,6.30
2022-11-23T11:59:57.745Z,6.25
2022-11-23T12:02:29.771Z,6.30
2022-11-23T12:05:06.693Z,6.32
2022-11-23T12:07:39.028Z,6.35
2022-11-23T12:10:17.045Z,6.35
2022-11-23T12:12:48.220Z,6.33
2022-11-23T12:18:39.360Z,6.29
2022-11-23T12:21:23.110Z,6.26
2022-11-23T12:24:01.135Z,6.23
2022-11-23T12:26:40.105Z,6.30
2022-11-23T12:29:31.639Z,6.38
2022-11-23T12:32:12.937Z,6.26
2022-11-23T12:34:58.070Z,6.21
2022-11-23T12:37:45.565Z,6.17
2022-11-23T12:40:27.279Z,6.16
2022-11-23T12:43:02.624Z,6.17
2022-11-23T12:45:48.150Z,6.17
2022-11-23T12:48:27.051Z,6.22
2022-11-23T12:51:04.042Z,6.39
2022-11-23T12:53:42.995Z,6.53
2022-11-23T12:56:23.775Z,6.51
2022-11-23T12:58:55.705Z,6.61
2022-11-23T13:01:31.014Z,6.76
2022-11-23T13:04:35.341Z,6.82
2022-11-23T13:07:51.135Z,6.95
2022-11-23T13:10:26.952Z,7.09
2022-11-23T13:13:27.921Z,7.22
2022-11-23T13:16:18.477Z,7.19
2022-11-23T13:19:04.167Z,7.10
2022-11-23T13:21:37.830Z,6.95
2022-11-23T13:24:25.449Z,6.86
2022-11-23T13:27:31.452Z,6.92
2022-11-23T13:30:11.022Z,6.97
2022-11-23T13:32:57.382Z,6.99
2022-11-23T13:36:05.217Z,7.02
2022-11-23T13:38:42.877Z,6.94
2022-11-23T13:41:52.800Z,6.85
2022-11-23T13:44:24.156Z,6.82
2022-11-23T13:47:05.638Z,6.78
2022-11-23T13:49:42.177Z,6.72
2022-11-23T13:52:36.765Z,6.62
2022-11-23T13:55:19.880Z,6.57
2022-11-23T13:58:26.968Z,6.49
2022-11-23T14:00:58.791Z,6.38
2022-11-23T14:03:51.142Z,6.33
2022-11-23T14:06:43.269Z,6.24
2022-11-23T14:09:18.687Z,6.19
2022-11-23T14:11:56.976Z,6.14
2022-11-23T14:14:30.561Z,6.11
2022-11-23T14:17:20.920Z,6.09
2022-11-23T14:20:09.980Z,6.02
2022-11-23T14:22:48.971Z,5.97
2022-11-23T14:25:30.996Z,5.93
2022-11-23T14:28:08.988Z,5.90
2022-11-23T14:30:54.983Z,5.84
2022-11-23T14:33:33.957Z,5.83
2022-11-23T14:36:17.004Z,5.79
2022-11-23T14:39:05.541Z,5.72
2022-11-23T14:41:37.050Z,5.66
2022-11-23T14:44:06.974Z,5.59
2022-11-23T14:46:35.339Z,5.51
2022-11-23T14:49:07.485Z,5.40
2022-11-23T14:51:40.660Z,5.31
2022-11-23T14:54:12.073Z,5.23
2022-11-23T14:56:45.386Z,5.16
2022-11-23T14:59:22.894Z,5.10
2022-11-23T15:01:53.866Z,5.02
2022-11-23T15:04:34.191Z,4.95
2022-11-23T15:07:06.840Z,4.88
2022-11-23T15:09:48.167Z,4.81
2022-11-23T15:12:22.994Z,4.75
2022-11-23T15:14:52.184Z,4.70
2022-11-23T15:17:22.446Z,4.66
2022-11-23T15:19:59.960Z,4.59
2022-11-23T15:22:31.198Z,4.55
2022-11-23T15:25:08.131Z,4.49
2022-11-23T15:27:41.133Z,4.44
2022-11-23T15:30:16.729Z,4.39
2022-11-23T15:32:45.130Z,4.35
2022-11-23T15:35:16.806Z,4.32
2022-11-23T15:37:47.220Z,4.31
2022-11-23T15:40:17.420Z,4.27
2022-11-23T15:42:47.839Z,4.23
2022-11-23T15:45:58.147Z,4.20
2022-11-23T15:48:30.881Z,4.17
2022-11-23T15:51:02.777Z,4.13
2022-11-23T15:53:33.516Z,4.10
2022-11-23T15:56:03.989Z,4.08
2022-11-23T15:58:33.829Z,4.06
2022-11-23T16:01:08.430Z,4.05
2022-11-23T16:03:42.878Z,4.03
2022-11-23T16:06:24.811Z,4.02
2022-11-23T16:08:53.307Z,4.01
2022-11-23T16:11:24.526Z,4.00
2022-11-23T16:13:52.890Z,3.99
2022-11-23T16:16:23.194Z,3.96
2022-11-23T16:18:56.794Z,3.92
2022-11-23T16:21:26.813Z,3.88
2022-11-23T16:23:57.436Z,3.84
2022-11-23T16:26:31.823Z,3.81
2022-11-23T16:29:00.883Z,3.78
2022-11-23T16:31:30.980Z,3.74
2022-11-23T16:33:59.369Z,3.70
2022-11-23T16:36:29.878Z,3.65
2022-11-23T16:39:03.971Z,3.59
2022-11-23T16:41:33.938Z,3.55
2022-11-23T16:44:02.275Z,3.52
2022-11-23T16:46:32.386Z,3.48
2022-11-23T16:49:00.905Z,3.46
2022-11-23T16:51:30.654Z,3.40
2022-11-23T16:54:17.968Z,3.36
2022-11-23T16:56:47.495Z,3.28
2022-11-23T16:59:19.050Z,3.21
2022-11-23T17:01:52.731Z,3.16
2022-11-23T17:04:26.019Z,3.10
2022-11-23T17:06:55.853Z,3.08
2022-11-23T17:09:24.204Z,3.03
2022-11-23T17:11:52.646Z,3.00
2022-11-23T17:14:26.636Z,2.98
2022-11-23T17:17:02.089Z,2.93
2022-11-23T17:19:33.428Z,2.89
2022-11-23T17:22:03.248Z,2.86
2022-11-23T17:24:31.994Z,2.84
2022-11-23T17:27:00.809Z,2.84
2022-11-23T17:29:29.154Z,2.82
2022-11-23T17:31:57.487Z,2.82
2022-11-23T17:34:25.903Z,2.82
2022-11-23T17:36:54.892Z,2.81
2022-11-23T17:39:26.233Z,2.80
2022-11-23T17:41:54.976Z,2.80
2022-11-23T17:44:25.206Z,2.77
2022-11-23T17:46:58.021Z,2.74
2022-11-23T17:49:28.329Z,2.71
2022-11-23T17:51:56.890Z,2.67
2022-11-23T17:54:26.617Z,2.63
2022-11-23T17:56:55.182Z,2.63
2022-11-23T17:59:23.523Z,2.58
2022-11-23T18:01:51.910Z,2.55
2022-11-23T18:04:20.450Z,2.49
2022-11-23T18:06:48.813Z,2.46
2022-11-23T18:09:17.141Z,2.44
2022-11-23T18:11:46.859Z,2.39
2022-11-23T18:14:15.194Z,2.36
2022-11-23T18:16:43.573Z,2.33
2022-11-23T18:19:11.967Z,2.29
2022-11-23T18:21:40.418Z,2.25
2022-11-23T18:24:09.200Z,2.22
2022-11-23T18:26:37.644Z,2.21
2022-11-23T18:29:07.517Z,2.16
2022-11-23T18:31:35.898Z,2.16
2022-11-23T18:34:05.154Z,2.14
2022-11-23T18:36:33.545Z,2.12
2022-11-23T18:39:01.968Z,2.15
2022-11-23T18:41:30.581Z,2.15
2022-11-23T18:43:59.025Z,2.12
2022-11-23T18:46:29.568Z,2.11
2022-11-23T18:48:58.382Z,2.09
2022-11-23T18:51:27.075Z,2.07
2022-11-23T18:53:55.711Z,2.06
2022-11-23T18:56:24.040Z,2.00
2022-11-23T18:58:52.657Z,2.05
2022-11-23T19:01:24.763Z,2.04
2022-11-23T19:03:54.686Z,2.03
2022-11-23T19:06:24.312Z,2.03
2022-11-23T19:08:54.760Z,2.00
2022-11-23T19:11:27.306Z,1.99
2022-11-23T19:13:58.034Z,2.00
2022-11-23T19:16:29.938Z,1.98
2022-11-23T19:19:01.500Z,1.95
2022-11-23T19:21:32.261Z,1.94
2022-11-23T19:24:01.777Z,1.89
2022-11-23T19:26:31.197Z,1.90
2022-11-23T19:29:01.139Z,1.88
2022-11-23T19:31:31.276Z,1.88
2022-11-23T19:34:02.392Z,1.88
2022-11-23T19:36:33.312Z,1.88
2022-11-23T19:39:02.747Z,1.83
2022-11-23T19:41:31.370Z,1.77
2022-11-23T19:44:01.232Z,1.77
2022-11-23T19:46:30.631Z,1.72
2022-11-23T19:48:59.803Z,1.67
2022-11-23T19:51:29.750Z,1.63
2022-11-23T19:53:59.964Z,1.58
2022-11-23T19:56:39.191Z,1.56
2022-11-23T19:59:07.631Z,1.53
2022-11-23T20:01:36.532Z,1.53
2022-11-23T20:04:09.345Z,1.51
2022-11-23T20:06:56.987Z,1.49
2022-11-23T20:09:27.669Z,1.49
2022-11-23T20:11:56.077Z,1.48
2022-11-23T20:14:24.411Z,1.49
2022-11-23T20:16:52.749Z,1.51
2022-11-23T20:19:24.138Z,1.51
2022-11-23T20:21:53.281Z,1.49
2022-11-23T20:24:22.989Z,1.51
2022-11-23T20:26:51.355Z,1.50
2022-11-23T20:29:19.829Z,1.49
2022-11-23T20:31:48.207Z,1.45
2022-11-23T20:34:20.604Z,1.44
2022-11-23T20:36:50.469Z,1.40
2022-11-23T20:39:19.349Z,1.36
2022-11-23T20:41:49.820Z,1.39
2022-11-23T20:44:18.738Z,1.35
2022-11-23T20:47:01.871Z,1.33
2022-11-23T20:49:31.469Z,1.33
2022-11-23T20:52:01.750Z,1.29
2022-11-23T20:54:30.325Z,1.26
2022-11-23T20:57:00.715Z,1.25
2022-11-23T20:59:29.947Z,1.27
2022-11-23T21:01:59.438Z,1.27
2022-11-23T21:04:53.742Z,1.25
2022-11-23T21:07:24.777Z,1.23
2022-11-23T21:09:53.203Z,1.19
2022-11-23T21:12:40.478Z,1.18
2022-11-23T21:15:09.780Z,1.18
2022-11-23T21:17:38.582Z,1.15
2022-11-23T21:20:07.870Z,1.16
2022-11-23T21:22:37.172Z,1.16
2022-11-23T21:25:06.668Z,1.15
2022-11-23T21:27:36.990Z,1.13
2022-11-23T21:30:07.269Z,1.11
2022-11-23T21:32:35.590Z,1.09
2022-11-23T21:35:04.153Z,1.06
2022-11-23T21:37:33.054Z,1.04
2022-11-23T21:40:01.476Z,1.00
2022-11-23T21:42:29.887Z,0.98
2022-11-23T21:44:59.630Z,0.96
2022-11-23T21:47:28.805Z,0.93
2022-11-23T21:49:57.202Z,0.92
2022-11-23T21:53:01.309Z,0.91
2022-11-23T21:55:32.800Z,0.92
2022-11-23T21:58:01.192Z,0.90
2022-11-23T22:00:33.235Z,0.90
2022-11-23T22:03:05.580Z,0.85
2022-11-23T22:05:38.844Z,0.84
2022-11-23T22:08:28.097Z,0.83
2022-11-23T22:10:55.541Z,0.83
2022-11-23T22:13:24.177Z,0.84
2022-11-23T22:15:54.227Z,0.82
2022-11-23T22:18:23.058Z,0.79
2022-11-23T22:20:52.186Z,0.77
2022-11-23T22:23:20.505Z,0.74
2022-11-23T22:25:48.841Z,0.71
2022-11-23T22:28:17.134Z,0.72
2022-11-23T22:30:55.281Z,0.66
2022-11-23T22:33:23.644Z,0.68
2022-11-23T22:35:52.282Z,0.64
2022-11-23T22:38:20.626Z,0.62
2022-11-23T22:40:49.083Z,0.63
2022-11-23T22:43:17.448Z,0.61
2022-11-23T22:45:45.813Z,0.61
2022-11-23T22:48:15.556Z,0.63
2022-11-23T22:50:44.386Z,0.62
2022-11-23T22:53:12.710Z,0.62
2022-11-23T22:55:41.054Z,0.59
2022-11-23T22:58:09.401Z,0.63
2022-11-23T23:00:37.821Z,0.63
2022-11-23T23:03:06.351Z,0.63
2022-11-23T23:05:36.245Z,0.65
2022-11-23T23:08:04.821Z,0.69
2022-11-23T23:10:34.504Z,0.68
2022-11-23T23:13:02.958Z,0.69
2022-11-23T23:15:31.425Z,0.69
2022-11-23T23:17:59.999Z,0.68
2022-11-23T23:20:28.318Z,0.72
2022-11-23T23:22:58.057Z,0.70
2022-11-23T23:25:26.435Z,0.69
2022-11-23T23:27:54.829Z,0.71
2022-11-23T23:30:23.261Z,0.73
2022-11-23T23:32:53.241Z,0.72
2022-11-23T23:35:21.582Z,0.71
2022-11-23T23:37:50.317Z,0.70
2022-11-23T23:40:20.057Z,0.70
2022-11-23T23:42:48.401Z,0.70
2022-11-23T23:45:17.018Z,0.70
2022-11-23T23:47:45.345Z,0.69
2022-11-23T23:50:13.667Z,0.68
2022-11-23T23:52:42.106Z,0.68
2022-11-23T23:55:10.772Z,0.70
2022-11-23T23:57:40.440Z,0.70
